sensor_id;sensor_type;location;lat;lon;timestamp;P1;durP1;ratioP1;P2;durP2;ratioP2
36745;SDS011;22715;52.182;21.206;2022-09-03T00:01:52;5.13;;;2.88;;
36745;SDS011;22715;52.182;21.206;2022-09-03T00:06:59;5.70;;;2.65;;
36745;SDS011;22715;52.182;21.206;2022-09-03T00:10:01;3.73;;;2.27;;
36745;SDS011;22715;52.182;21.206;2022-09-03T00:12:21;6.00;;;1.90;;
36745;SDS011;22715;52.182;21.206;2022-09-03T00:15:03;4.15;;;2.22;;
36745;SDS011;22715;52.182;21.206;2022-09-03T00:19:59;5.20;;;2.60;;
36745;SDS011;22715;52.182;21.206;2022-09-03T00:22:26;7.60;;;2.55;;
36745;SDS011;22715;52.182;21.206;2022-09-03T00:24:53;5.75;;;2.50;;
36745;SDS011;22715;52.182;21.206;2022-09-03T00:27:21;7.28;;;3.88;;
36745;SDS011;22715;52.182;21.206;2022-09-03T00:29:49;8.38;;;3.95;;
36745;SDS011;22715;52.182;21.206;2022-09-03T00:32:33;6.15;;;3.78;;
36745;SDS011;22715;52.182;21.206;2022-09-03T00:37:34;11.20;;;5.15;;
36745;SDS011;22715;52.182;21.206;2022-09-03T00:40:03;7.13;;;3.17;;
36745;SDS011;22715;52.182;21.206;2022-09-03T00:45:39;9.07;;;4.40;;
36745;SDS011;22715;52.182;21.206;2022-09-03T00:51:20;7.22;;;3.65;;
36745;SDS011;22715;52.182;21.206;2022-09-03T00:54:05;7.75;;;3.88;;
36745;SDS011;22715;52.182;21.206;2022-09-03T00:59:02;9.23;;;3.88;;
36745;SDS011;22715;52.182;21.206;2022-09-03T01:14:58;11.52;;;5.20;;
36745;SDS011;22715;52.182;21.206;2022-09-03T01:30:41;10.20;;;4.53;;
36745;SDS011;22715;52.182;21.206;2022-09-03T01:35:56;6.55;;;3.80;;
36745;SDS011;22715;52.182;21.206;2022-09-03T01:38:29;10.98;;;4.55;;
36745;SDS011;22715;52.182;21.206;2022-09-03T01:51:35;7.60;;;3.95;;
36745;SDS011;22715;52.182;21.206;2022-09-03T01:59:14;8.48;;;4.15;;
36745;SDS011;22715;52.182;21.206;2022-09-03T02:01:51;6.13;;;3.45;;
36745;SDS011;22715;52.182;21.206;2022-09-03T02:04:18;6.53;;;3.35;;
36745;SDS011;22715;52.182;21.206;2022-09-03T02:06:47;9.07;;;4.40;;
36745;SDS011;22715;52.182;21.206;2022-09-03T02:09:13;6.72;;;3.50;;
36745;SDS011;22715;52.182;21.206;2022-09-03T02:11:39;7.50;;;4.25;;
36745;SDS011;22715;52.182;21.206;2022-09-03T02:14:05;6.80;;;3.55;;
36745;SDS011;22715;52.182;21.206;2022-09-03T02:16:30;5.82;;;3.50;;
36745;SDS011;22715;52.182;21.206;2022-09-03T02:19:02;5.65;;;3.05;;
36745;SDS011;22715;52.182;21.206;2022-09-03T02:21:36;5.88;;;3.60;;
36745;SDS011;22715;52.182;21.206;2022-09-03T02:24:02;5.53;;;3.20;;
36745;SDS011;22715;52.182;21.206;2022-09-03T02:26:28;4.45;;;2.97;;
36745;SDS011;22715;52.182;21.206;2022-09-03T02:28:54;9.30;;;3.80;;
36745;SDS011;22715;52.182;21.206;2022-09-03T02:31:20;6.10;;;4.20;;
36745;SDS011;22715;52.182;21.206;2022-09-03T02:33:46;7.75;;;3.80;;
36745;SDS011;22715;52.182;21.206;2022-09-03T02:36:12;9.07;;;3.20;;
36745;SDS011;22715;52.182;21.206;2022-09-03T02:38:47;6.75;;;3.88;;
36745;SDS011;22715;52.182;21.206;2022-09-03T02:41:13;5.40;;;2.92;;
36745;SDS011;22715;52.182;21.206;2022-09-03T02:44:00;11.48;;;3.65;;
36745;SDS011;22715;52.182;21.206;2022-09-03T02:46:37;6.25;;;3.13;;
36745;SDS011;22715;52.182;21.206;2022-09-03T02:49:03;7.22;;;3.15;;
36745;SDS011;22715;52.182;21.206;2022-09-03T02:51:36;7.30;;;4.80;;
36745;SDS011;22715;52.182;21.206;2022-09-03T02:54:02;5.65;;;2.92;;
36745;SDS011;22715;52.182;21.206;2022-09-03T02:56:27;7.28;;;2.90;;
36745;SDS011;22715;52.182;21.206;2022-09-03T02:58:53;4.10;;;3.03;;
36745;SDS011;22715;52.182;21.206;2022-09-03T03:01:19;8.88;;;3.55;;
36745;SDS011;22715;52.182;21.206;2022-09-03T03:03:45;4.63;;;3.13;;
36745;SDS011;22715;52.182;21.206;2022-09-03T03:06:10;4.80;;;3.17;;
36745;SDS011;22715;52.182;21.206;2022-09-03T03:08:36;7.28;;;2.08;;
36745;SDS011;22715;52.182;21.206;2022-09-03T03:11:02;7.05;;;3.03;;
36745;SDS011;22715;52.182;21.206;2022-09-03T03:13:32;5.03;;;2.25;;
36745;SDS011;22715;52.182;21.206;2022-09-03T03:15:59;6.88;;;2.95;;
36745;SDS011;22715;52.182;21.206;2022-09-03T03:18:29;6.45;;;3.00;;
36745;SDS011;22715;52.182;21.206;2022-09-03T03:20:55;3.90;;;2.67;;
36745;SDS011;22715;52.182;21.206;2022-09-03T03:23:20;7.10;;;3.47;;
36745;SDS011;22715;52.182;21.206;2022-09-03T03:25:46;5.00;;;3.30;;
36745;SDS011;22715;52.182;21.206;2022-09-03T03:28:12;7.28;;;3.17;;
36745;SDS011;22715;52.182;21.206;2022-09-03T03:30:38;3.90;;;3.22;;
36745;SDS011;22715;52.182;21.206;2022-09-03T03:33:04;9.98;;;3.38;;
36745;SDS011;22715;52.182;21.206;2022-09-03T03:35:30;6.53;;;2.63;;
36745;SDS011;22715;52.182;21.206;2022-09-03T03:37:58;4.45;;;3.03;;
36745;SDS011;22715;52.182;21.206;2022-09-03T03:40:25;5.93;;;2.83;;
36745;SDS011;22715;52.182;21.206;2022-09-03T03:42:50;5.93;;;2.40;;
36745;SDS011;22715;52.182;21.206;2022-09-03T03:45:19;6.03;;;2.65;;
36745;SDS011;22715;52.182;21.206;2022-09-03T03:47:45;4.82;;;2.58;;
36745;SDS011;22715;52.182;21.206;2022-09-03T03:50:13;3.85;;;2.53;;
36745;SDS011;22715;52.182;21.206;2022-09-03T03:52:44;3.25;;;2.53;;
36745;SDS011;22715;52.182;21.206;2022-09-03T03:55:12;3.45;;;2.83;;
36745;SDS011;22715;52.182;21.206;2022-09-03T03:57:38;4.75;;;3.28;;
36745;SDS011;22715;52.182;21.206;2022-09-03T04:00:04;5.25;;;2.50;;
36745;SDS011;22715;52.182;21.206;2022-09-03T04:02:30;6.43;;;2.45;;
36745;SDS011;22715;52.182;21.206;2022-09-03T04:04:55;4.07;;;2.53;;
36745;SDS011;22715;52.182;21.206;2022-09-03T04:07:21;4.60;;;3.08;;
36745;SDS011;22715;52.182;21.206;2022-09-03T04:09:48;4.20;;;2.33;;
36745;SDS011;22715;52.182;21.206;2022-09-03T04:12:16;6.68;;;2.85;;
36745;SDS011;22715;52.182;21.206;2022-09-03T04:14:43;4.65;;;2.78;;
36745;SDS011;22715;52.182;21.206;2022-09-03T04:17:09;3.08;;;2.58;;
36745;SDS011;22715;52.182;21.206;2022-09-03T04:19:34;4.97;;;3.40;;
36745;SDS011;22715;52.182;21.206;2022-09-03T04:22:00;5.45;;;2.35;;
36745;SDS011;22715;52.182;21.206;2022-09-03T04:24:27;6.78;;;3.50;;
36745;SDS011;22715;52.182;21.206;2022-09-03T04:26:52;4.40;;;2.45;;
36745;SDS011;22715;52.182;21.206;2022-09-03T04:29:18;4.13;;;1.83;;
36745;SDS011;22715;52.182;21.206;2022-09-03T04:31:46;4.40;;;2.92;;
36745;SDS011;22715;52.182;21.206;2022-09-03T04:34:30;6.70;;;3.08;;
36745;SDS011;22715;52.182;21.206;2022-09-03T04:36:55;2.97;;;2.38;;
36745;SDS011;22715;52.182;21.206;2022-09-03T04:39:23;4.60;;;2.10;;
36745;SDS011;22715;52.182;21.206;2022-09-03T04:41:48;3.25;;;2.63;;
36745;SDS011;22715;52.182;21.206;2022-09-03T04:44:14;5.75;;;3.15;;
36745;SDS011;22715;52.182;21.206;2022-09-03T04:46:40;5.47;;;2.22;;
36745;SDS011;22715;52.182;21.206;2022-09-03T04:49:05;3.72;;;2.10;;
36745;SDS011;22715;52.182;21.206;2022-09-03T04:51:33;3.78;;;2.38;;
36745;SDS011;22715;52.182;21.206;2022-09-03T04:54:00;5.40;;;3.40;;
36745;SDS011;22715;52.182;21.206;2022-09-03T04:56:30;4.05;;;2.05;;
36745;SDS011;22715;52.182;21.206;2022-09-03T04:59:00;6.45;;;2.58;;
36745;SDS011;22715;52.182;21.206;2022-09-03T05:01:31;5.32;;;1.90;;
36745;SDS011;22715;52.182;21.206;2022-09-03T05:03:57;3.28;;;2.22;;
36745;SDS011;22715;52.182;21.206;2022-09-03T05:06:23;3.13;;;2.35;;
36745;SDS011;22715;52.182;21.206;2022-09-03T05:08:50;5.70;;;2.00;;
36745;SDS011;22715;52.182;21.206;2022-09-03T05:11:17;7.50;;;2.67;;
36745;SDS011;22715;52.182;21.206;2022-09-03T05:13:45;4.45;;;2.33;;
36745;SDS011;22715;52.182;21.206;2022-09-03T05:16:11;3.53;;;2.65;;
36745;SDS011;22715;52.182;21.206;2022-09-03T05:18:37;4.97;;;2.10;;
36745;SDS011;22715;52.182;21.206;2022-09-03T05:21:10;7.55;;;3.15;;
36745;SDS011;22715;52.182;21.206;2022-09-03T05:26:31;3.28;;;1.92;;
36745;SDS011;22715;52.182;21.206;2022-09-03T05:28:58;7.75;;;2.70;;
36745;SDS011;22715;52.182;21.206;2022-09-03T05:31:25;3.42;;;2.72;;
36745;SDS011;22715;52.182;21.206;2022-09-03T05:33:55;5.45;;;2.80;;
36745;SDS011;22715;52.182;21.206;2022-09-03T05:36:25;4.30;;;2.85;;
36745;SDS011;22715;52.182;21.206;2022-09-03T05:38:52;10.18;;;2.53;;
36745;SDS011;22715;52.182;21.206;2022-09-03T05:41:22;6.00;;;2.73;;
36745;SDS011;22715;52.182;21.206;2022-09-03T05:43:48;11.90;;;2.55;;
36745;SDS011;22715;52.182;21.206;2022-09-03T05:46:19;5.97;;;2.20;;
36745;SDS011;22715;52.182;21.206;2022-09-03T05:48:44;3.35;;;1.88;;
36745;SDS011;22715;52.182;21.206;2022-09-03T05:51:11;5.13;;;2.47;;
36745;SDS011;22715;52.182;21.206;2022-09-03T05:53:38;2.92;;;2.47;;
36745;SDS011;22715;52.182;21.206;2022-09-03T05:56:04;6.60;;;3.22;;
36745;SDS011;22715;52.182;21.206;2022-09-03T05:58:34;4.57;;;2.22;;
36745;SDS011;22715;52.182;21.206;2022-09-03T06:01:08;5.70;;;2.53;;
36745;SDS011;22715;52.182;21.206;2022-09-03T06:03:33;8.98;;;2.78;;
36745;SDS011;22715;52.182;21.206;2022-09-03T06:05:59;3.72;;;2.63;;
36745;SDS011;22715;52.182;21.206;2022-09-03T06:08:26;3.55;;;2.20;;
36745;SDS011;22715;52.182;21.206;2022-09-03T06:10:56;5.30;;;1.70;;
36745;SDS011;22715;52.182;21.206;2022-09-03T06:13:22;5.47;;;1.93;;
36745;SDS011;22715;52.182;21.206;2022-09-03T06:15:57;5.47;;;2.75;;
36745;SDS011;22715;52.182;21.206;2022-09-03T06:18:24;3.47;;;1.48;;
36745;SDS011;22715;52.182;21.206;2022-09-03T06:20:56;3.58;;;1.38;;
36745;SDS011;22715;52.182;21.206;2022-09-03T06:23:22;2.22;;;1.20;;
36745;SDS011;22715;52.182;21.206;2022-09-03T06:25:58;3.15;;;1.33;;
36745;SDS011;22715;52.182;21.206;2022-09-03T06:28:23;1.92;;;1.23;;
36745;SDS011;22715;52.182;21.206;2022-09-03T06:30:51;4.40;;;1.20;;
36745;SDS011;22715;52.182;21.206;2022-09-03T06:33:16;3.67;;;1.10;;
36745;SDS011;22715;52.182;21.206;2022-09-03T06:35:45;4.97;;;1.65;;
36745;SDS011;22715;52.182;21.206;2022-09-03T06:38:11;3.78;;;1.58;;
36745;SDS011;22715;52.182;21.206;2022-09-03T06:40:36;2.70;;;1.13;;
36745;SDS011;22715;52.182;21.206;2022-09-03T06:43:02;1.40;;;1.25;;
36745;SDS011;22715;52.182;21.206;2022-09-03T06:45:28;4.57;;;1.67;;
36745;SDS011;22715;52.182;21.206;2022-09-03T06:47:54;2.50;;;1.30;;
36745;SDS011;22715;52.182;21.206;2022-09-03T06:50:20;2.53;;;1.70;;
36745;SDS011;22715;52.182;21.206;2022-09-03T06:52:49;3.00;;;1.98;;
36745;SDS011;22715;52.182;21.206;2022-09-03T06:55:15;1.70;;;1.33;;
36745;SDS011;22715;52.182;21.206;2022-09-03T06:57:40;5.57;;;1.83;;
36745;SDS011;22715;52.182;21.206;2022-09-03T07:00:06;4.55;;;1.65;;
36745;SDS011;22715;52.182;21.206;2022-09-03T07:02:33;2.38;;;1.33;;
36745;SDS011;22715;52.182;21.206;2022-09-03T07:04:59;4.25;;;1.02;;
36745;SDS011;22715;52.182;21.206;2022-09-03T07:07:24;1.25;;;1.02;;
36745;SDS011;22715;52.182;21.206;2022-09-03T07:09:50;3.08;;;1.10;;
36745;SDS011;22715;52.182;21.206;2022-09-03T07:12:19;3.63;;;1.20;;
36745;SDS011;22715;52.182;21.206;2022-09-03T07:14:46;1.88;;;1.00;;
36745;SDS011;22715;52.182;21.206;2022-09-03T07:17:11;1.92;;;1.42;;
36745;SDS011;22715;52.182;21.206;2022-09-03T07:19:36;2.10;;;1.40;;
36745;SDS011;22715;52.182;21.206;2022-09-03T07:22:02;2.70;;;1.95;;
36745;SDS011;22715;52.182;21.206;2022-09-03T07:24:27;4.10;;;1.30;;
36745;SDS011;22715;52.182;21.206;2022-09-03T07:26:53;3.72;;;1.27;;
36745;SDS011;22715;52.182;21.206;2022-09-03T07:29:23;4.38;;;1.48;;
36745;SDS011;22715;52.182;21.206;2022-09-03T07:32:04;1.73;;;1.60;;
36745;SDS011;22715;52.182;21.206;2022-09-03T07:34:29;2.25;;;1.10;;
36745;SDS011;22715;52.182;21.206;2022-09-03T07:39:30;2.00;;;1.13;;
36745;SDS011;22715;52.182;21.206;2022-09-03T07:41:57;0.82;;;0.77;;
36745;SDS011;22715;52.182;21.206;2022-09-03T07:44:24;2.22;;;1.30;;
36745;SDS011;22715;52.182;21.206;2022-09-03T07:46:50;1.48;;;0.80;;
36745;SDS011;22715;52.182;21.206;2022-09-03T07:49:16;2.45;;;1.33;;
36745;SDS011;22715;52.182;21.206;2022-09-03T07:54:14;2.05;;;1.13;;
36745;SDS011;22715;52.182;21.206;2022-09-03T07:56:40;1.42;;;1.33;;
36745;SDS011;22715;52.182;21.206;2022-09-03T08:01:40;5.70;;;1.20;;
36745;SDS011;22715;52.182;21.206;2022-09-03T08:04:06;1.55;;;1.30;;
36745;SDS011;22715;52.182;21.206;2022-09-03T08:06:31;1.95;;;1.25;;
36745;SDS011;22715;52.182;21.206;2022-09-03T08:09:06;2.53;;;1.00;;
36745;SDS011;22715;52.182;21.206;2022-09-03T08:11:34;1.00;;;1.00;;
36745;SDS011;22715;52.182;21.206;2022-09-03T08:14:02;1.98;;;1.52;;
36745;SDS011;22715;52.182;21.206;2022-09-03T08:19:06;2.97;;;0.95;;
36745;SDS011;22715;52.182;21.206;2022-09-03T08:21:32;1.45;;;1.35;;
36745;SDS011;22715;52.182;21.206;2022-09-03T08:23:57;1.55;;;1.20;;
36745;SDS011;22715;52.182;21.206;2022-09-03T08:26:44;3.25;;;2.15;;
36745;SDS011;22715;52.182;21.206;2022-09-03T08:29:10;2.85;;;0.80;;
36745;SDS011;22715;52.182;21.206;2022-09-03T08:31:39;2.63;;;1.38;;
36745;SDS011;22715;52.182;21.206;2022-09-03T08:34:05;0.95;;;0.60;;
36745;SDS011;22715;52.182;21.206;2022-09-03T08:36:36;3.08;;;1.08;;
36745;SDS011;22715;52.182;21.206;2022-09-03T08:39:04;2.65;;;1.15;;
36745;SDS011;22715;52.182;21.206;2022-09-03T08:44:27;3.50;;;1.05;;
36745;SDS011;22715;52.182;21.206;2022-09-03T08:47:09;1.15;;;0.93;;
36745;SDS011;22715;52.182;21.206;2022-09-03T08:52:07;4.10;;;1.08;;
36745;SDS011;22715;52.182;21.206;2022-09-03T08:54:40;3.58;;;2.30;;
36745;SDS011;22715;52.182;21.206;2022-09-03T08:57:23;2.60;;;1.57;;
36745;SDS011;22715;52.182;21.206;2022-09-03T09:00:13;1.48;;;1.13;;
36745;SDS011;22715;52.182;21.206;2022-09-03T09:02:51;1.25;;;1.05;;
36745;SDS011;22715;52.182;21.206;2022-09-03T09:05:29;1.50;;;1.40;;
36745;SDS011;22715;52.182;21.206;2022-09-03T09:08:05;2.17;;;1.33;;
36745;SDS011;22715;52.182;21.206;2022-09-03T09:10:50;1.50;;;1.00;;
36745;SDS011;22715;52.182;21.206;2022-09-03T09:13:27;1.83;;;1.08;;
36745;SDS011;22715;52.182;21.206;2022-09-03T09:21:22;3.35;;;1.00;;
36745;SDS011;22715;52.182;21.206;2022-09-03T09:23:50;1.50;;;0.90;;
36745;SDS011;22715;52.182;21.206;2022-09-03T09:29:00;1.23;;;0.90;;
36745;SDS011;22715;52.182;21.206;2022-09-03T09:31:36;4.95;;;0.85;;
36745;SDS011;22715;52.182;21.206;2022-09-03T09:34:03;2.35;;;1.20;;
36745;SDS011;22715;52.182;21.206;2022-09-03T09:36:29;2.40;;;1.15;;
36745;SDS011;22715;52.182;21.206;2022-09-03T09:38:55;2.10;;;0.70;;
36745;SDS011;22715;52.182;21.206;2022-09-03T09:41:34;1.02;;;0.68;;
36745;SDS011;22715;52.182;21.206;2022-09-03T09:44:00;1.10;;;0.70;;
36745;SDS011;22715;52.182;21.206;2022-09-03T09:46:29;2.30;;;0.90;;
36745;SDS011;22715;52.182;21.206;2022-09-03T09:48:57;1.45;;;0.82;;
36745;SDS011;22715;52.182;21.206;2022-09-03T09:51:29;2.88;;;0.80;;
36745;SDS011;22715;52.182;21.206;2022-09-03T09:57:00;2.08;;;0.80;;
36745;SDS011;22715;52.182;21.206;2022-09-03T09:59:26;0.98;;;0.70;;
36745;SDS011;22715;52.182;21.206;2022-09-03T10:02:01;4.32;;;1.17;;
36745;SDS011;22715;52.182;21.206;2022-09-03T10:04:30;1.45;;;1.02;;
36745;SDS011;22715;52.182;21.206;2022-09-03T10:07:15;0.82;;;0.70;;
36745;SDS011;22715;52.182;21.206;2022-09-03T10:09:44;2.95;;;0.80;;
36745;SDS011;22715;52.182;21.206;2022-09-03T10:23:23;0.98;;;0.73;;
36745;SDS011;22715;52.182;21.206;2022-09-03T10:28:28;1.77;;;0.52;;
36745;SDS011;22715;52.182;21.206;2022-09-03T10:36:24;1.30;;;0.73;;
36745;SDS011;22715;52.182;21.206;2022-09-03T10:44:14;1.08;;;0.80;;
36745;SDS011;22715;52.182;21.206;2022-09-03T10:49:20;13.15;;;2.35;;
36745;SDS011;22715;52.182;21.206;2022-09-03T10:51:50;1.05;;;0.45;;
36745;SDS011;22715;52.182;21.206;2022-09-03T11:02:16;2.90;;;1.17;;
36745;SDS011;22715;52.182;21.206;2022-09-03T11:04:46;1.65;;;0.80;;
36745;SDS011;22715;52.182;21.206;2022-09-03T11:07:36;0.93;;;0.82;;
36745;SDS011;22715;52.182;21.206;2022-09-03T11:15:40;1.23;;;0.80;;
36745;SDS011;22715;52.182;21.206;2022-09-03T11:20:34;3.80;;;0.88;;
36745;SDS011;22715;52.182;21.206;2022-09-03T11:26:06;2.58;;;0.82;;
36745;SDS011;22715;52.182;21.206;2022-09-03T11:33:53;1.35;;;1.00;;
36745;SDS011;22715;52.182;21.206;2022-09-03T11:36:35;2.58;;;1.10;;
36745;SDS011;22715;52.182;21.206;2022-09-03T11:39:17;2.33;;;1.67;;
36745;SDS011;22715;52.182;21.206;2022-09-03T11:41:55;1.27;;;1.13;;
36745;SDS011;22715;52.182;21.206;2022-09-03T11:44:23;0.80;;;0.50;;
36745;SDS011;22715;52.182;21.206;2022-09-03T11:52:31;2.25;;;0.95;;
36745;SDS011;22715;52.182;21.206;2022-09-03T12:00:15;2.00;;;0.80;;
36745;SDS011;22715;52.182;21.206;2022-09-03T12:11:05;1.23;;;0.80;;
36745;SDS011;22715;52.182;21.206;2022-09-03T12:13:53;1.42;;;0.95;;
36745;SDS011;22715;52.182;21.206;2022-09-03T12:19:17;2.38;;;1.35;;
36745;SDS011;22715;52.182;21.206;2022-09-03T12:21:49;1.83;;;0.60;;
36745;SDS011;22715;52.182;21.206;2022-09-03T12:26:49;1.60;;;0.90;;
36745;SDS011;22715;52.182;21.206;2022-09-03T12:32:10;1.73;;;0.70;;
36745;SDS011;22715;52.182;21.206;2022-09-03T12:45:22;0.70;;;0.55;;
36745;SDS011;22715;52.182;21.206;2022-09-03T12:53:19;0.50;;;0.43;;
36745;SDS011;22715;52.182;21.206;2022-09-03T12:55:46;2.53;;;0.82;;
36745;SDS011;22715;52.182;21.206;2022-09-03T12:58:29;4.22;;;1.02;;
36745;SDS011;22715;52.182;21.206;2022-09-03T13:00:59;1.52;;;0.68;;
36745;SDS011;22715;52.182;21.206;2022-09-03T13:09:03;2.67;;;1.00;;
36745;SDS011;22715;52.182;21.206;2022-09-03T13:11:35;2.97;;;0.85;;
36745;SDS011;22715;52.182;21.206;2022-09-03T13:30:10;0.68;;;0.50;;
36745;SDS011;22715;52.182;21.206;2022-09-03T13:43:59;6.28;;;0.80;;
36745;SDS011;22715;52.182;21.206;2022-09-03T13:54:21;1.35;;;0.52;;
36745;SDS011;22715;52.182;21.206;2022-09-03T14:04:39;2.42;;;0.75;;
36745;SDS011;22715;52.182;21.206;2022-09-03T14:12:41;2.50;;;0.73;;
36745;SDS011;22715;52.182;21.206;2022-09-03T14:20:38;5.60;;;0.82;;
36745;SDS011;22715;52.182;21.206;2022-09-03T14:28:16;1.03;;;0.57;;
36745;SDS011;22715;52.182;21.206;2022-09-03T14:36:05;1.13;;;0.55;;
36745;SDS011;22715;52.182;21.206;2022-09-03T14:41:28;1.08;;;0.73;;
36745;SDS011;22715;52.182;21.206;2022-09-03T14:44:08;2.05;;;0.75;;
36745;SDS011;22715;52.182;21.206;2022-09-03T14:52:04;0.98;;;0.60;;
36745;SDS011;22715;52.182;21.206;2022-09-03T14:54:40;0.70;;;0.70;;
36745;SDS011;22715;52.182;21.206;2022-09-03T14:57:21;1.05;;;0.85;;
36745;SDS011;22715;52.182;21.206;2022-09-03T15:00:12;4.00;;;0.60;;
36745;SDS011;22715;52.182;21.206;2022-09-03T15:02:51;1.60;;;0.63;;
36745;SDS011;22715;52.182;21.206;2022-09-03T15:05:40;3.28;;;0.88;;
36745;SDS011;22715;52.182;21.206;2022-09-03T15:08:11;2.38;;;0.85;;
36745;SDS011;22715;52.182;21.206;2022-09-03T15:10:46;2.00;;;1.00;;
36745;SDS011;22715;52.182;21.206;2022-09-03T15:37:26;1.88;;;0.93;;
36745;SDS011;22715;52.182;21.206;2022-09-03T15:59:34;1.80;;;1.00;;
36745;SDS011;22715;52.182;21.206;2022-09-03T16:07:41;2.05;;;1.15;;
36745;SDS011;22715;52.182;21.206;2022-09-03T16:10:16;2.20;;;1.30;;
36745;SDS011;22715;52.182;21.206;2022-09-03T16:13:01;1.55;;;1.38;;
36745;SDS011;22715;52.182;21.206;2022-09-03T16:23:18;1.10;;;0.90;;
36745;SDS011;22715;52.182;21.206;2022-09-03T16:26:05;2.20;;;1.48;;
36745;SDS011;22715;52.182;21.206;2022-09-03T16:28:35;3.80;;;1.50;;
36745;SDS011;22715;52.182;21.206;2022-09-03T16:33:36;1.92;;;0.98;;
36745;SDS011;22715;52.182;21.206;2022-09-03T16:38:50;1.45;;;1.17;;
36745;SDS011;22715;52.182;21.206;2022-09-03T16:41:21;1.35;;;1.00;;
36745;SDS011;22715;52.182;21.206;2022-09-03T16:52:06;1.60;;;1.20;;
36745;SDS011;22715;52.182;21.206;2022-09-03T17:02:43;3.17;;;1.83;;
36745;SDS011;22715;52.182;21.206;2022-09-03T17:07:52;3.10;;;1.15;;
36745;SDS011;22715;52.182;21.206;2022-09-03T17:21:11;4.47;;;1.95;;
36745;SDS011;22715;52.182;21.206;2022-09-03T17:23:46;4.07;;;2.00;;
36745;SDS011;22715;52.182;21.206;2022-09-03T17:26:20;4.13;;;1.35;;
36745;SDS011;22715;52.182;21.206;2022-09-03T17:31:23;2.45;;;2.17;;
36745;SDS011;22715;52.182;21.206;2022-09-03T17:34:04;4.00;;;2.45;;
36745;SDS011;22715;52.182;21.206;2022-09-03T17:36:35;1.52;;;1.40;;
36745;SDS011;22715;52.182;21.206;2022-09-03T17:41:52;3.03;;;2.05;;
36745;SDS011;22715;52.182;21.206;2022-09-03T17:49:40;10.50;;;2.03;;
36745;SDS011;22715;52.182;21.206;2022-09-03T17:52:27;2.33;;;1.42;;
36745;SDS011;22715;52.182;21.206;2022-09-03T17:57:46;3.97;;;2.20;;
36745;SDS011;22715;52.182;21.206;2022-09-03T18:00:22;5.47;;;1.20;;
36745;SDS011;22715;52.182;21.206;2022-09-03T18:05:24;5.15;;;1.95;;
36745;SDS011;22715;52.182;21.206;2022-09-03T18:10:48;3.08;;;1.40;;
36745;SDS011;22715;52.182;21.206;2022-09-03T18:16:04;3.03;;;1.50;;
36745;SDS011;22715;52.182;21.206;2022-09-03T18:18:31;2.88;;;1.73;;
36745;SDS011;22715;52.182;21.206;2022-09-03T18:20:58;2.42;;;1.40;;
36745;SDS011;22715;52.182;21.206;2022-09-03T18:26:46;2.83;;;2.55;;
36745;SDS011;22715;52.182;21.206;2022-09-03T18:30:14;3.00;;;2.70;;
36745;SDS011;22715;52.182;21.206;2022-09-03T18:32:38;4.95;;;2.30;;
36745;SDS011;22715;52.182;21.206;2022-09-03T18:35:23;5.22;;;3.10;;
36745;SDS011;22715;52.182;21.206;2022-09-03T18:38:08;3.75;;;2.05;;
36745;SDS011;22715;52.182;21.206;2022-09-03T18:40:55;4.85;;;2.92;;
36745;SDS011;22715;52.182;21.206;2022-09-03T18:43:46;5.53;;;3.72;;
36745;SDS011;22715;52.182;21.206;2022-09-03T18:46:37;10.40;;;4.90;;
36745;SDS011;22715;52.182;21.206;2022-09-03T18:49:27;5.53;;;3.30;;
36745;SDS011;22715;52.182;21.206;2022-09-03T18:55:30;5.18;;;3.10;;
36745;SDS011;22715;52.182;21.206;2022-09-03T19:01:04;4.75;;;3.80;;
36745;SDS011;22715;52.182;21.206;2022-09-03T19:03:57;6.03;;;4.17;;
36745;SDS011;22715;52.182;21.206;2022-09-03T19:06:46;7.18;;;3.78;;
36745;SDS011;22715;52.182;21.206;2022-09-03T19:09:39;9.90;;;4.18;;
36745;SDS011;22715;52.182;21.206;2022-09-03T19:12:34;5.30;;;2.97;;
36745;SDS011;22715;52.182;21.206;2022-09-03T19:15:24;5.88;;;3.38;;
36745;SDS011;22715;52.182;21.206;2022-09-03T19:24:07;7.15;;;3.10;;
36745;SDS011;22715;52.182;21.206;2022-09-03T19:27:06;6.40;;;3.20;;
36745;SDS011;22715;52.182;21.206;2022-09-03T19:41:50;5.38;;;3.03;;
36745;SDS011;22715;52.182;21.206;2022-09-03T19:44:50;3.25;;;2.08;;
36745;SDS011;22715;52.182;21.206;2022-09-03T19:47:49;6.35;;;2.33;;
36745;SDS011;22715;52.182;21.206;2022-09-03T19:50:49;5.93;;;3.35;;
36745;SDS011;22715;52.182;21.206;2022-09-03T19:53:35;6.50;;;2.78;;
36745;SDS011;22715;52.182;21.206;2022-09-03T19:56:26;6.68;;;3.03;;
36745;SDS011;22715;52.182;21.206;2022-09-03T19:59:12;5.25;;;2.95;;
36745;SDS011;22715;52.182;21.206;2022-09-03T20:01:59;3.78;;;3.05;;
36745;SDS011;22715;52.182;21.206;2022-09-03T20:04:45;5.25;;;3.00;;
36745;SDS011;22715;52.182;21.206;2022-09-03T20:07:30;5.72;;;2.72;;
36745;SDS011;22715;52.182;21.206;2022-09-03T20:10:15;6.82;;;3.45;;
36745;SDS011;22715;52.182;21.206;2022-09-03T20:13:09;3.80;;;3.05;;
36745;SDS011;22715;52.182;21.206;2022-09-03T20:23:22;5.93;;;3.95;;
36745;SDS011;22715;52.182;21.206;2022-09-03T20:25:58;6.85;;;3.28;;
36745;SDS011;22715;52.182;21.206;2022-09-03T20:31:13;5.93;;;3.63;;
36745;SDS011;22715;52.182;21.206;2022-09-03T20:33:53;6.00;;;3.97;;
36745;SDS011;22715;52.182;21.206;2022-09-03T20:46:17;7.07;;;3.42;;
36745;SDS011;22715;52.182;21.206;2022-09-03T20:48:53;4.25;;;3.03;;
36745;SDS011;22715;52.182;21.206;2022-09-03T21:07:08;6.45;;;3.92;;
36745;SDS011;22715;52.182;21.206;2022-09-03T21:12:10;11.75;;;4.13;;
36745;SDS011;22715;52.182;21.206;2022-09-03T21:14:39;6.50;;;3.80;;
36745;SDS011;22715;52.182;21.206;2022-09-03T21:22:28;6.80;;;4.32;;
36745;SDS011;22715;52.182;21.206;2022-09-03T21:25:00;8.00;;;4.05;;
36745;SDS011;22715;52.182;21.206;2022-09-03T21:27:32;6.05;;;4.05;;
36745;SDS011;22715;52.182;21.206;2022-09-03T21:30:00;7.70;;;4.00;;
36745;SDS011;22715;52.182;21.206;2022-09-03T21:32:34;10.13;;;3.78;;
36745;SDS011;22715;52.182;21.206;2022-09-03T21:37:50;5.88;;;3.35;;
36745;SDS011;22715;52.182;21.206;2022-09-03T21:40:18;8.57;;;5.22;;
36745;SDS011;22715;52.182;21.206;2022-09-03T21:42:47;8.80;;;3.75;;
36745;SDS011;22715;52.182;21.206;2022-09-03T21:45:19;6.38;;;4.22;;
36745;SDS011;22715;52.182;21.206;2022-09-03T21:47:49;7.45;;;4.13;;
36745;SDS011;22715;52.182;21.206;2022-09-03T21:50:16;7.15;;;3.90;;
36745;SDS011;22715;52.182;21.206;2022-09-03T21:52:55;7.30;;;3.65;;
36745;SDS011;22715;52.182;21.206;2022-09-03T21:55:28;4.53;;;4.00;;
36745;SDS011;22715;52.182;21.206;2022-09-03T21:58:14;11.50;;;5.15;;
36745;SDS011;22715;52.182;21.206;2022-09-03T22:00:44;6.93;;;3.70;;
36745;SDS011;22715;52.182;21.206;2022-09-03T22:03:10;10.15;;;5.63;;
36745;SDS011;22715;52.182;21.206;2022-09-03T22:05:40;6.65;;;4.35;;
36745;SDS011;22715;52.182;21.206;2022-09-03T22:08:26;6.82;;;3.95;;
36745;SDS011;22715;52.182;21.206;2022-09-03T22:13:34;9.27;;;5.15;;
36745;SDS011;22715;52.182;21.206;2022-09-03T22:18:31;7.13;;;4.30;;
36745;SDS011;22715;52.182;21.206;2022-09-03T22:23:31;11.85;;;3.97;;
36745;SDS011;22715;52.182;21.206;2022-09-03T22:26:09;8.52;;;4.00;;
36745;SDS011;22715;52.182;21.206;2022-09-03T22:28:50;7.90;;;3.67;;
36745;SDS011;22715;52.182;21.206;2022-09-03T22:31:26;6.90;;;4.85;;
36745;SDS011;22715;52.182;21.206;2022-09-03T22:36:39;10.63;;;4.30;;
36745;SDS011;22715;52.182;21.206;2022-09-03T22:39:12;9.32;;;4.75;;
36745;SDS011;22715;52.182;21.206;2022-09-03T22:47:13;11.48;;;4.18;;
36745;SDS011;22715;52.182;21.206;2022-09-03T22:49:45;7.38;;;4.55;;